Knifley, Kentucky
Current Conditions -  °F | °C
As of 7:35 PM on Monday 24 Nov 2014 (Local Time) from K6I2 Reporting Station
Clear Clear  
Wind Chill: 41°   Ceiling: Unl
Heat Index: 45°   Visibility: 10mi
Dew Point: 34°   Wind: 6mph
Humidity: 66%   Direction: 350°N
Pressure: 29.94"   Gusts: NA
Location:  37.24°N, 85.19°W
Report Text: K6I2 250135Z AUTO 35005KT 10SM CLR 07/01 A2994 RMK AO2
Loading
Personal Weather Stations






























Interactive Weather Map New forecast layout! Learn more

10-Day Weather Forecast

Advertisements
Track Severe Weather on mobile